createdAt,value
2022-08-23T00:15:47.206Z,20
2022-08-23T00:25:48.105Z,19.9
2022-08-23T00:35:48.403Z,19.7
2022-08-23T01:15:50.742Z,18.9
2022-08-23T01:55:52.682Z,18.1
2022-08-23T02:05:53.585Z,17.9
2022-08-23T02:15:53.860Z,17.7
2022-08-23T02:25:54.555Z,17.5
2022-08-23T02:35:55.489Z,17.4
2022-08-23T02:45:56.096Z,17.2
2022-08-23T02:55:56.508Z,17
2022-08-23T03:05:56.822Z,16.8
2022-08-23T03:15:57.603Z,16.7
2022-08-23T03:25:57.916Z,16.5
2022-08-23T03:35:58.098Z,16.4
2022-08-23T03:45:58.825Z,16.3
2022-08-23T03:55:59.750Z,16.2
2022-08-23T04:06:00.412Z,16.1
2022-08-23T04:16:01.300Z,16
2022-08-23T04:26:01.843Z,15.9
2022-08-23T04:36:02.162Z,15.8
2022-08-23T04:46:02.331Z,15.8
2022-08-23T04:56:02.809Z,15.7
2022-08-23T05:06:03.468Z,15.7
2022-08-23T05:16:03.942Z,15.8
2022-08-23T05:26:04.021Z,16
2022-08-23T05:36:04.678Z,16.2
2022-08-23T06:06:05.993Z,17.8
2022-08-23T06:16:14.602Z,18.4
2022-08-23T06:26:07.162Z,18.8
2022-08-23T06:36:08.216Z,19.3
2022-08-23T06:46:08.329Z,19.7
2022-08-23T06:56:08.853Z,20.3
2022-08-23T07:06:09.042Z,20.8
2022-08-23T07:16:09.974Z,21.2
2022-08-23T07:26:10.878Z,21.7
2022-08-23T07:36:11.225Z,22.2
2022-08-23T07:46:12.524Z,22.9
2022-08-23T07:56:12.282Z,23.4
2022-08-23T08:06:12.418Z,23.4
2022-08-23T08:16:13.364Z,23.8
2022-08-23T08:26:13.444Z,24.1
2022-08-23T08:46:15.198Z,24.8
2022-08-23T08:56:16.564Z,25
2022-08-23T09:06:16.680Z,25.2
2022-08-23T09:16:17.526Z,25.8
2022-08-23T09:36:17.859Z,26.1
2022-08-23T09:56:18.976Z,27
2022-08-23T09:56:40.926Z,27
2022-08-23T10:06:24.633Z,27.3
2022-08-23T10:16:25.384Z,27.7
2022-08-23T10:26:26.273Z,27.8
2022-08-23T10:36:27.021Z,28
2022-08-23T10:46:27.509Z,28.2
2022-08-23T10:56:27.679Z,28.5
2022-08-23T11:06:28.150Z,28.8
2022-08-23T11:16:28.966Z,28.7
2022-08-23T11:26:29.190Z,29.1
2022-08-23T11:36:29.843Z,29.4
2022-08-23T11:46:30.862Z,29.8
2022-08-23T11:56:31.396Z,30
2022-08-23T12:06:31.726Z,30
2022-08-23T12:16:32.339Z,30.3
2022-08-23T12:26:32.851Z,30.7
2022-08-23T12:36:33.096Z,31.2
2022-08-23T12:46:33.962Z,31
2022-08-23T12:56:34.178Z,31.7
2022-08-23T13:06:34.762Z,31.7
2022-08-23T13:16:35.597Z,32
2022-08-23T13:26:36.046Z,31.9
2022-08-23T13:36:36.486Z,31.7
2022-08-23T13:46:37.571Z,31.8
2022-08-23T13:56:38.335Z,32.3
2022-08-23T14:06:38.677Z,32.3
2022-08-23T14:16:39.940Z,31.9
2022-08-23T14:26:48.890Z,31.8
2022-08-23T14:36:40.613Z,31.5
2022-08-23T14:46:41.448Z,31
2022-08-23T14:56:42.072Z,31.4
2022-08-23T15:06:55.158Z,32
2022-08-23T15:16:43.355Z,32
2022-08-23T15:26:44.085Z,31.6
2022-08-23T15:36:44.590Z,31.4
2022-08-23T15:46:44.876Z,32.1
2022-08-23T15:56:45.385Z,32
2022-08-23T16:06:45.651Z,31.5
2022-08-23T16:16:46.104Z,31.3
2022-08-23T16:26:46.550Z,30.5
2022-08-23T16:46:47.789Z,30
2022-08-23T16:56:48.491Z,29.8
2022-08-23T17:16:50.007Z,29.5
2022-08-23T17:26:50.882Z,29.3
2022-08-23T17:36:51.159Z,29.1
2022-08-23T17:56:52.619Z,28.7
2022-08-23T18:26:54.513Z,27.9
2022-08-23T18:36:54.775Z,27.6
2022-08-23T18:46:54.957Z,27.1
2022-08-23T18:56:55.405Z,26.6
2022-08-23T19:06:56.397Z,26.2
2022-08-23T19:16:56.721Z,25.8
2022-08-23T19:37:01.002Z,24.8
2022-08-23T20:17:00.652Z,23.8
2022-08-23T20:37:02.492Z,23.4
2022-08-23T20:57:03.824Z,23.1
2022-08-23T21:17:04.096Z,22.8
2022-08-23T21:27:06.600Z,22.6
2022-08-23T21:37:04.949Z,22.3
2022-08-23T21:57:06.144Z,21.8
2022-08-23T22:17:07.550Z,21.5
2022-08-23T22:37:08.752Z,21.4
2022-08-23T22:47:09.297Z,21.2
2022-08-23T22:57:09.982Z,21
2022-08-23T23:07:10.906Z,20.8
2022-08-23T23:17:11.082Z,20.7
2022-08-23T23:57:12.733Z,20
